createdAt,value
2018-02-06T00:01:25.311Z,12.23
2018-02-06T00:03:55.590Z,11.33
2018-02-06T00:06:26.451Z,10.60
2018-02-06T00:08:55.036Z,10.80
2018-02-06T00:11:25.629Z,9.57
2018-02-06T00:13:55.897Z,10.67
2018-02-06T00:16:35.199Z,10.97
2018-02-06T00:19:05.464Z,9.63
2018-02-06T00:21:36.461Z,9.87
2018-02-06T00:24:07.865Z,10.37
2018-02-06T00:26:41.206Z,9.93
2018-02-06T00:29:11.590Z,9.50
2018-02-06T00:31:42.635Z,10.60
2018-02-06T00:34:12.053Z,11.70
2018-02-06T00:36:40.591Z,14.03
2018-02-06T00:39:09.116Z,14.43
2018-02-06T00:41:39.304Z,14.27
2018-02-06T00:44:10.053Z,12.07
2018-02-06T00:46:38.533Z,12.50
2018-02-06T00:49:07.437Z,12.13
2018-02-06T00:51:39.198Z,11.70
2018-02-06T00:54:07.875Z,11.23
2018-02-06T00:56:36.356Z,10.70
2018-02-06T00:59:04.752Z,9.63
2018-02-06T01:01:35.049Z,10.40
2018-02-06T01:04:06.740Z,10.23
2018-02-06T01:06:37.048Z,11.20
2018-02-06T01:11:41.576Z,11.17
2018-02-06T01:14:13.074Z,10.80
2018-02-06T01:16:43.159Z,10.60
2018-02-06T01:19:11.797Z,11.63
2018-02-06T01:21:40.438Z,11.10
2018-02-06T01:24:10.581Z,10.47
2018-02-06T01:26:40.815Z,12.77
2018-02-06T01:29:09.452Z,10.23
2018-02-06T01:31:37.957Z,11.27
2018-02-06T01:34:06.539Z,10.37
2018-02-06T01:36:35.025Z,11.07
2018-02-06T01:39:05.304Z,10.53
2018-02-06T01:41:41.184Z,11.30
2018-02-06T01:44:09.784Z,10.50
2018-02-06T01:46:39.796Z,10.80
2018-02-06T01:49:08.296Z,11.10
2018-02-06T01:51:39.521Z,10.57
2018-02-06T01:54:10.278Z,10.97
2018-02-06T01:56:40.456Z,10.60
2018-02-06T01:59:10.841Z,10.23
2018-02-06T02:01:41.944Z,10.90
2018-02-06T02:04:19.868Z,10.07
2018-02-06T02:06:48.335Z,11.50
2018-02-06T02:09:18.556Z,10.57
2018-02-06T02:11:47.998Z,9.43
2018-02-06T02:14:16.463Z,10.97
2018-02-06T02:16:45.049Z,9.57
2018-02-06T02:19:15.251Z,10.07
2018-02-06T02:21:44.780Z,11.00
2018-02-06T02:24:13.317Z,11.00
2018-02-06T02:26:43.753Z,11.87
2018-02-06T02:29:21.964Z,10.87
2018-02-06T02:31:52.283Z,11.30
2018-02-06T02:34:25.708Z,10.33
2018-02-06T02:37:02.314Z,10.60
2018-02-06T02:39:32.471Z,9.80
2018-02-06T04:39:59.204Z,11.53
2018-02-06T04:42:29.642Z,10.73
2018-02-06T04:45:12.885Z,10.60
2018-02-06T04:47:45.249Z,12.40
2018-02-06T04:50:15.537Z,11.93
2018-02-06T04:52:44.859Z,11.60
2018-02-06T04:55:13.432Z,11.50
2018-02-06T04:57:43.726Z,10.90
2018-02-06T05:00:14.080Z,12.40
2018-02-06T05:02:54.854Z,10.60
2018-02-06T05:05:25.266Z,11.60
2018-02-06T05:07:56.223Z,11.13
2018-02-06T05:10:26.410Z,12.03
2018-02-06T05:12:55.778Z,11.53
2018-02-06T05:15:24.326Z,10.83
2018-02-06T05:17:53.044Z,10.27
2018-02-06T05:20:24.586Z,11.50
2018-02-06T05:22:53.814Z,11.67
2018-02-06T05:25:23.514Z,11.30
2018-02-06T05:27:53.814Z,11.43
2018-02-06T05:30:30.503Z,10.50
2018-02-06T05:33:01.848Z,10.93
2018-02-06T05:35:30.440Z,12.87
2018-02-06T05:38:00.898Z,11.60
2018-02-06T05:40:32.897Z,12.60
2018-02-06T05:43:03.131Z,10.70
2018-02-06T05:45:31.738Z,12.10
2018-02-06T05:48:03.090Z,11.90
2018-02-06T05:50:33.576Z,11.40
2018-02-06T05:53:12.076Z,11.40
2018-02-06T05:55:45.272Z,14.20
2018-02-06T05:58:13.842Z,11.43
2018-02-06T06:00:43.156Z,11.13
2018-02-06T06:03:13.871Z,10.77
2018-02-06T06:05:42.395Z,10.90
2018-02-06T06:08:12.228Z,11.60
2018-02-06T06:10:40.773Z,11.77
2018-02-06T06:13:09.426Z,14.77
2018-02-06T06:18:33.543Z,12.10
2018-02-06T06:21:11.273Z,13.20
2018-02-06T06:23:40.902Z,11.90
2018-02-06T06:26:09.393Z,12.10
2018-02-06T06:28:37.868Z,12.23
2018-02-06T06:31:06.347Z,11.77
2018-02-06T06:33:34.988Z,12.50
2018-02-06T06:36:05.205Z,12.37
2018-02-06T06:38:38.077Z,11.90
2018-02-06T06:41:10.325Z,12.40
2018-02-06T06:43:38.824Z,12.43
2018-02-06T06:46:12.149Z,10.97
2018-02-06T06:48:42.253Z,11.73
2018-02-06T06:51:12.641Z,10.20
2018-02-06T06:53:45.119Z,11.20
2018-02-06T06:56:19.817Z,11.00
2018-02-06T06:58:48.339Z,11.17
2018-02-06T07:01:20.024Z,11.63
2018-02-06T07:03:51.023Z,10.67
2018-02-06T07:06:21.343Z,11.20
2018-02-06T07:08:52.413Z,12.07
2018-02-06T07:11:22.825Z,11.90
2018-02-06T07:13:55.388Z,11.77
2018-02-06T07:16:25.727Z,12.37
2018-02-06T07:18:58.658Z,11.23
2018-02-06T07:21:29.239Z,10.77
2018-02-06T07:26:34.278Z,12.07
2018-02-06T07:29:05.791Z,11.17
2018-02-06T07:31:36.933Z,10.77
2018-02-06T07:34:05.483Z,12.03
2018-02-06T07:36:35.721Z,11.73
2018-02-06T07:39:08.303Z,12.93
2018-02-06T07:41:40.857Z,12.90
2018-02-06T07:44:10.488Z,12.47
2018-02-06T07:46:40.141Z,13.03
2018-02-06T07:49:11.209Z,11.53
2018-02-06T07:51:41.514Z,11.90
2018-02-06T07:54:25.083Z,12.60
2018-02-06T07:56:56.262Z,12.10
2018-02-06T07:59:24.925Z,11.90
2018-02-06T08:01:55.098Z,12.90
2018-02-06T08:04:40.796Z,11.07
2018-02-06T08:07:09.407Z,12.97
2018-02-06T08:09:40.998Z,12.10
2018-02-06T08:12:11.374Z,12.27
2018-02-06T08:14:41.625Z,12.80
2018-02-06T08:17:10.216Z,14.80
2018-02-06T08:19:40.543Z,15.77
2018-02-06T08:22:11.658Z,12.47
2018-02-06T08:24:44.368Z,13.10
2018-02-06T08:27:22.033Z,11.93
2018-02-06T08:29:50.634Z,11.57
2018-02-06T08:32:20.805Z,12.37
2018-02-06T08:34:54.870Z,12.63
2018-02-06T08:37:27.444Z,13.87
2018-02-06T08:39:56.893Z,12.97
2018-02-06T08:42:27.568Z,11.70
2018-02-06T08:44:57.002Z,11.60
2018-02-06T09:11:20.544Z,14.60
2018-02-06T09:13:50.995Z,15.30
2018-02-06T09:16:27.733Z,13.20
2018-02-06T09:18:58.726Z,13.67
2018-02-06T09:21:28.946Z,15.47
2018-02-06T09:27:12.541Z,14.60
2018-02-06T09:29:44.990Z,15.70
2018-02-06T09:32:21.055Z,14.53
2018-02-06T09:34:53.284Z,16.43
2018-02-06T09:37:21.776Z,15.73
2018-02-06T09:39:50.458Z,14.00
2018-02-06T09:42:20.692Z,15.60
2018-02-06T09:44:51.546Z,14.97
2018-02-06T09:47:20.306Z,14.03
2018-02-06T09:49:50.642Z,14.00
2018-02-06T09:52:23.240Z,15.73
2018-02-06T09:54:54.158Z,16.63
2018-02-06T09:57:29.997Z,13.37
2018-02-06T10:00:00.616Z,15.17
2018-02-06T10:02:31.303Z,13.90
2018-02-06T10:05:02.054Z,14.50
2018-02-06T10:07:30.898Z,14.90
2018-02-06T10:10:00.218Z,14.80
2018-02-06T10:12:28.779Z,15.53
2018-02-06T10:14:58.949Z,13.70
2018-02-06T10:17:29.521Z,15.67
2018-02-06T10:19:59.862Z,14.00
2018-02-06T10:22:30.813Z,15.73
2018-02-06T10:25:00.009Z,14.23
2018-02-06T10:27:33.105Z,15.03
2018-02-06T10:30:01.534Z,15.23
2018-02-06T10:32:32.582Z,14.97
2018-02-06T10:35:11.244Z,14.83
2018-02-06T10:37:39.759Z,15.10
2018-02-06T10:40:09.936Z,14.03
2018-02-06T10:42:39.585Z,14.43
2018-02-06T10:45:09.896Z,14.40
2018-02-06T10:47:44.914Z,16.60
2018-02-06T10:50:15.233Z,15.30
2018-02-06T10:52:48.093Z,15.10
2018-02-06T10:55:28.518Z,15.50
2018-02-06T10:57:58.902Z,13.57
2018-02-06T11:00:29.852Z,14.57
2018-02-06T11:03:00.512Z,14.10
2018-02-06T11:05:29.808Z,14.10
2018-02-06T11:07:58.692Z,13.30
2018-02-06T11:10:27.700Z,12.97
2018-02-06T11:12:56.281Z,12.13
2018-02-06T11:15:24.864Z,11.50
2018-02-06T11:17:53.453Z,13.63
2018-02-06T11:20:22.134Z,12.53
2018-02-06T11:22:50.726Z,14.40
2018-02-06T11:25:21.605Z,14.50
2018-02-06T11:27:50.153Z,14.10
2018-02-06T11:30:21.338Z,13.87
2018-02-06T11:32:50.641Z,15.10
2018-02-06T11:35:19.287Z,11.70
2018-02-06T11:37:47.863Z,13.37
2018-02-06T11:40:17.099Z,14.00
2018-02-06T11:42:45.652Z,13.07
2018-02-06T11:45:14.089Z,15.30
2018-02-06T11:47:47.365Z,13.00
2018-02-06T11:50:17.645Z,12.83
2018-02-06T11:52:48.842Z,14.50
2018-02-06T11:55:29.318Z,14.23
2018-02-06T11:57:59.798Z,14.70
2018-02-06T12:00:30.341Z,13.60
2018-02-06T12:02:59.118Z,13.30
2018-02-06T12:05:27.712Z,13.30
2018-02-06T12:07:59.918Z,11.30
2018-02-06T12:10:30.100Z,14.20
2018-02-06T12:12:58.661Z,12.50
2018-02-06T12:15:29.137Z,13.80
2018-02-06T12:17:59.194Z,14.33
2018-02-06T12:20:29.337Z,13.40
2018-02-06T12:22:59.681Z,13.60
2018-02-06T12:25:30.934Z,14.03
2018-02-06T12:28:01.931Z,13.77
2018-02-06T12:30:33.105Z,12.13
2018-02-06T12:33:02.418Z,13.67
2018-02-06T12:35:32.725Z,13.37
2018-02-06T12:38:05.743Z,12.83
2018-02-06T12:40:36.779Z,13.90
2018-02-06T12:43:07.559Z,12.90
2018-02-06T12:45:37.728Z,12.87
2018-02-06T12:48:08.172Z,12.57
2018-02-06T12:50:40.684Z,12.80
2018-02-06T12:53:10.909Z,12.43
2018-02-06T12:55:40.282Z,13.63
2018-02-06T12:58:12.730Z,12.27
2018-02-06T13:00:42.860Z,13.50
2018-02-06T13:03:12.327Z,11.97
2018-02-06T13:05:40.856Z,11.43
2018-02-06T13:08:09.335Z,13.10
2018-02-06T13:10:40.466Z,13.40
2018-02-06T13:13:10.774Z,11.67
2018-02-06T13:15:43.486Z,12.37
2018-02-06T13:18:25.628Z,13.00
2018-02-06T13:20:56.726Z,11.37
2018-02-06T13:23:40.377Z,11.27
2018-02-06T13:26:10.670Z,12.60
2018-02-06T13:28:40.795Z,8.50
2018-02-06T13:31:11.129Z,12.17
2018-02-06T13:33:43.886Z,12.17
2018-02-06T13:36:20.815Z,14.37
2018-02-06T13:38:52.117Z,12.47
2018-02-06T13:41:20.691Z,11.63
2018-02-06T13:43:49.219Z,12.07
2018-02-06T13:46:17.915Z,10.50
2018-02-06T13:48:48.033Z,13.80
2018-02-06T13:51:19.792Z,12.47
2018-02-06T13:53:49.323Z,12.80
2018-02-06T13:56:19.720Z,12.17
2018-02-06T13:58:51.902Z,13.70
2018-02-06T14:01:34.404Z,12.13
2018-02-06T14:04:03.139Z,16.17
2018-02-06T14:06:31.689Z,14.57
2018-02-06T14:09:00.365Z,12.63
2018-02-06T14:11:34.970Z,12.93
2018-02-06T14:14:09.923Z,20.63
2018-02-06T14:16:38.508Z,19.00
2018-02-06T14:19:07.200Z,15.33
2018-02-06T14:21:35.785Z,13.70
2018-02-06T14:24:04.307Z,13.70
2018-02-06T14:26:32.753Z,14.43
2018-02-06T14:29:03.201Z,13.93
2018-02-06T14:31:31.766Z,13.63
2018-02-06T14:34:00.813Z,16.03
2018-02-06T14:36:29.445Z,13.53
2018-02-06T14:38:58.345Z,13.20
2018-02-06T14:41:27.851Z,13.50
2018-02-06T14:43:57.071Z,13.33
2018-02-06T14:46:29.219Z,11.70
2018-02-06T14:48:57.907Z,14.60
2018-02-06T14:51:28.209Z,14.20
2018-02-06T14:53:57.640Z,13.70
2018-02-06T14:56:30.901Z,13.53
2018-02-06T14:59:01.155Z,15.50
2018-02-06T15:01:32.099Z,14.50
2018-02-06T15:04:00.786Z,13.03
2018-02-06T15:06:31.290Z,13.60
2018-02-06T15:08:59.916Z,12.47
2018-02-06T15:11:28.484Z,11.23
2018-02-06T15:13:57.909Z,11.77
2018-02-06T15:19:19.938Z,11.97
2018-02-06T15:21:49.449Z,12.77
2018-02-06T15:24:34.916Z,13.20
2018-02-06T15:27:03.756Z,13.00
2018-02-06T15:29:34.363Z,13.13
2018-02-06T15:32:04.873Z,11.27
2018-02-06T15:34:37.522Z,11.83
2018-02-06T15:37:08.376Z,12.63
2018-02-06T15:39:38.807Z,14.13
2018-02-06T15:42:12.779Z,12.90
2018-02-06T15:44:41.324Z,12.73
2018-02-06T15:47:19.446Z,14.20
2018-02-06T15:49:48.097Z,14.27
2018-02-06T15:52:18.243Z,13.57
2018-02-06T15:54:48.546Z,13.60
2018-02-06T15:57:22.893Z,33.10
2018-02-06T15:59:51.453Z,42.57
2018-02-06T16:02:25.548Z,22.73
2018-02-06T16:04:54.558Z,17.60
2018-02-06T16:07:23.845Z,15.87
2018-02-06T16:09:52.447Z,15.33
2018-02-06T16:12:22.758Z,16.00
2018-02-06T16:14:53.796Z,14.33
2018-02-06T16:17:25.082Z,14.20
2018-02-06T16:19:56.290Z,14.43
2018-02-06T16:22:34.826Z,13.90
2018-02-06T16:25:03.535Z,14.40
2018-02-06T16:27:33.909Z,14.63
2018-02-06T16:30:03.565Z,16.53
2018-02-06T16:32:33.818Z,15.70
2018-02-06T16:35:04.985Z,15.27
2018-02-06T16:37:33.655Z,14.73
2018-02-06T16:40:04.044Z,14.97
2018-02-06T16:42:32.938Z,15.47
2018-02-06T16:45:01.524Z,15.80
2018-02-06T16:47:32.702Z,15.40
2018-02-06T16:50:14.452Z,15.00
2018-02-06T16:52:49.524Z,15.43
2018-02-06T16:55:18.278Z,15.40
2018-02-06T16:57:48.565Z,13.70
2018-02-06T17:00:19.551Z,13.13
2018-02-06T17:02:49.989Z,16.80
2018-02-06T17:05:21.011Z,14.47
2018-02-06T17:07:51.320Z,15.60
2018-02-06T17:10:23.859Z,15.70
2018-02-06T17:12:52.420Z,15.53
2018-02-06T17:15:21.399Z,16.60
2018-02-06T17:17:51.462Z,15.10
2018-02-06T17:20:21.836Z,15.10
2018-02-06T17:22:52.787Z,22.90
2018-02-06T17:25:28.021Z,24.20
2018-02-06T17:27:59.226Z,18.77
2018-02-06T17:30:30.472Z,21.63
2018-02-06T17:32:59.205Z,17.87
2018-02-06T17:35:29.491Z,25.50
2018-02-06T17:38:00.800Z,20.03
2018-02-06T17:40:29.589Z,23.07
2018-02-06T17:42:58.331Z,20.00
2018-02-06T17:45:26.946Z,19.60
2018-02-06T17:47:55.642Z,16.20
2018-02-06T17:50:24.330Z,17.83
2018-02-06T17:52:54.887Z,15.83
2018-02-06T17:55:32.021Z,16.97
2018-02-06T17:58:02.361Z,16.97
2018-02-06T18:00:34.978Z,16.43
2018-02-06T18:03:11.545Z,16.60
2018-02-06T18:05:46.312Z,17.27
2018-02-06T18:08:22.498Z,16.63
2018-02-06T18:10:52.698Z,15.70
2018-02-06T18:13:30.973Z,17.00
2018-02-06T18:15:59.511Z,15.77
2018-02-06T18:18:28.708Z,15.70
2018-02-06T18:21:06.919Z,14.90
2018-02-06T18:23:37.089Z,18.50
2018-02-06T18:26:06.490Z,16.00
2018-02-06T18:28:35.983Z,16.97
2018-02-06T18:31:04.455Z,16.97
2018-02-06T18:33:33.131Z,17.77
2018-02-06T18:36:03.567Z,18.07
2018-02-06T18:38:34.513Z,18.77
2018-02-06T18:41:03.191Z,16.80
2018-02-06T18:43:38.134Z,17.73
2018-02-06T18:46:07.620Z,17.83
2018-02-06T18:48:37.058Z,17.90
2018-02-06T18:51:05.623Z,16.90
2018-02-06T18:53:43.413Z,16.97
2018-02-06T18:56:18.137Z,17.20
2018-02-06T18:58:46.833Z,18.00
2018-02-06T19:01:18.619Z,17.50
2018-02-06T19:03:47.382Z,18.20
2018-02-06T19:06:18.577Z,18.13
2018-02-06T19:08:49.820Z,18.67
2018-02-06T19:11:22.175Z,18.00
2018-02-06T19:13:50.938Z,17.37
2018-02-06T19:16:20.339Z,15.87
2018-02-06T19:18:51.001Z,18.60
2018-02-06T19:21:21.471Z,18.17
2018-02-06T19:23:51.934Z,16.20
2018-02-06T19:26:23.957Z,18.87
2018-02-06T19:28:56.006Z,18.97
2018-02-06T19:31:26.510Z,18.13
2018-02-06T19:33:56.123Z,17.90
2018-02-06T19:36:27.464Z,18.00
2018-02-06T19:38:56.268Z,18.17
2018-02-06T19:41:25.713Z,17.87
2018-02-06T19:43:56.355Z,18.47
2018-02-06T19:46:26.857Z,19.00
2018-02-06T19:48:56.487Z,19.30
2018-02-06T19:51:25.743Z,17.70
2018-02-06T19:53:58.638Z,18.77
2018-02-06T19:56:28.409Z,19.40
2018-02-06T19:58:58.960Z,20.00
2018-02-06T20:01:30.924Z,19.73
2018-02-06T20:04:01.532Z,19.50
2018-02-06T20:06:30.653Z,17.70
2018-02-06T20:08:59.648Z,16.63
2018-02-06T20:11:34.696Z,17.40
2018-02-06T20:14:05.996Z,16.33
2018-02-06T20:16:36.317Z,17.50
2018-02-06T20:19:07.590Z,18.53
2018-02-06T20:21:39.068Z,19.30
2018-02-06T20:24:14.295Z,19.63
2018-02-06T20:26:43.911Z,19.13
2018-02-06T20:29:14.539Z,22.10
2018-02-06T20:31:44.152Z,19.17
2018-02-06T20:34:14.451Z,19.83
2018-02-06T20:36:45.628Z,18.60
2018-02-06T20:39:25.665Z,18.67
2018-02-06T20:41:54.919Z,18.37
2018-02-06T20:44:25.206Z,21.60
2018-02-06T20:46:56.255Z,17.13
2018-02-06T20:49:26.773Z,18.47
2018-02-06T20:51:57.105Z,16.80
2018-02-06T20:54:35.394Z,19.20
2018-02-06T20:57:04.720Z,17.17
2018-02-06T20:59:34.958Z,17.17
2018-02-06T21:02:21.484Z,17.47
2018-02-06T21:04:51.801Z,20.50
2018-02-06T21:07:21.512Z,16.67
2018-02-06T21:09:50.028Z,35.13
2018-02-06T21:12:18.731Z,33.60
2018-02-06T21:14:49.061Z,19.80
2018-02-06T21:17:20.114Z,20.93
2018-02-06T21:19:48.791Z,21.93
2018-02-06T21:22:18.259Z,21.20
2018-02-06T21:24:48.252Z,19.90
2018-02-06T21:27:23.190Z,20.00
2018-02-06T21:29:53.556Z,19.17
2018-02-06T21:32:25.378Z,23.53
2018-02-06T21:34:54.018Z,20.80
2018-02-06T21:37:22.745Z,20.40
2018-02-06T21:39:52.923Z,19.50
2018-02-06T21:42:23.108Z,21.47
2018-02-06T21:44:53.581Z,21.50
2018-02-06T21:47:29.124Z,20.30
2018-02-06T21:50:14.201Z,19.80
2018-02-06T21:52:44.864Z,20.03
2018-02-06T21:55:13.630Z,21.47
2018-02-06T21:57:43.783Z,21.57
2018-02-06T22:00:14.260Z,20.20
2018-02-06T22:02:48.552Z,18.87
2018-02-06T22:05:19.924Z,19.90
2018-02-06T22:07:50.227Z,20.00
2018-02-06T22:10:21.290Z,19.90
2018-02-06T22:12:50.183Z,17.70
2018-02-06T22:15:23.114Z,19.10
2018-02-06T22:17:53.505Z,18.60
2018-02-06T22:20:22.076Z,21.70
2018-02-06T22:22:50.564Z,18.73
2018-02-06T22:25:19.050Z,22.10
2018-02-06T22:27:47.653Z,19.97
2018-02-06T22:30:18.179Z,19.70
2018-02-06T22:32:52.006Z,19.17
2018-02-06T22:35:20.551Z,20.60
2018-02-06T22:37:49.258Z,19.57
2018-02-06T22:40:20.368Z,18.97
2018-02-06T22:42:48.882Z,19.50
2018-02-06T22:45:19.096Z,19.23
2018-02-06T22:47:50.062Z,19.00
2018-02-06T22:50:21.236Z,19.83
2018-02-06T22:52:50.641Z,20.83
2018-02-06T22:55:21.790Z,20.10
2018-02-06T22:57:50.434Z,19.80
2018-02-06T23:00:26.268Z,20.70
2018-02-06T23:02:57.788Z,20.17
2018-02-06T23:05:28.678Z,19.43
2018-02-06T23:08:02.328Z,19.80
2018-02-06T23:10:36.797Z,19.37
2018-02-06T23:13:08.030Z,21.37
2018-02-06T23:15:38.474Z,21.10
2018-02-06T23:18:13.501Z,19.77
2018-02-06T23:20:42.092Z,19.30
2018-02-06T23:23:13.604Z,21.47
2018-02-06T23:25:42.236Z,21.30
2018-02-06T23:28:10.744Z,19.60
2018-02-06T23:30:41.001Z,20.10
2018-02-06T23:33:11.413Z,19.83
2018-02-06T23:35:41.884Z,19.73
2018-02-06T23:38:11.434Z,17.70
2018-02-06T23:40:41.668Z,19.17
2018-02-06T23:43:12.656Z,19.67
2018-02-06T23:45:48.524Z,21.13
2018-02-06T23:48:25.120Z,18.53
2018-02-06T23:50:55.270Z,20.90
2018-02-06T23:53:23.718Z,23.10
2018-02-06T23:55:54.229Z,20.87
2018-02-06T23:58:34.174Z,18.60
